Latest Weather Observations for Scoresby

IDV60801

Issued at 10:31 pm EDT Sunday 1 February 2015 (issued every 30 minutes, with the page automatically refreshed every 10 minutes)

About weather observations | Map of weather stations | Latest weather observations for VIC | Other Formats
Station Details ID: 086104 Name: SCORESBY RESEARCH INSTITUTE Lat: -37.87 Lon: 145.26 Height: 80.0 m
Data from the previous 72 hours. | See also: Recent months at Scoresby
Date/Time
EDT
Temp
°C
App
Temp
°C
Dew
Point
Rel
Hum
%
Delta-T
°C
Wind Press
QNH
hPa
Press
MSL
hPa
Rain
since 9 am
mm
Dir
 
Spd
km/h
Gust
km/h
Spd
kts
Gust
kts
01/10:30pm 15.5 13.0 10.9 74 2.5 SSW 15 28 8 15 - - 0.4
01/10:00pm 15.7 13.5 10.9 73 2.6 SSW 13 24 7 13 - - 0.4
01/09:30pm 16.1 13.4 11.7 75 2.4 SSW 17 28 9 15 - - 0.4
01/09:00pm 16.4 14.3 12.4 77 2.2 SSW 15 28 8 15 - - 0.4
01/08:30pm 16.9 15.2 12.4 75 2.5 SSW 13 20 7 11 - - 0.4
01/08:00pm 17.3 16.0 12.6 74 2.6 SSW 11 22 6 12 - - 0.4
01/07:30pm 17.5 15.5 12.8 74 2.6 SSW 15 26 8 14 - - 0.4
01/07:00pm 18.4 16.9 13.1 71 3.0 S 13 26 7 14 - - 0.4
01/06:30pm 18.4 17.0 13.3 72 2.9 S 13 28 7 15 - - 0.4
01/06:00pm 18.2 16.3 14.1 77 2.4 SW 17 28 9 15 - - 0.4
01/05:30pm 17.9 16.4 14.2 79 2.1 SW 15 26 8 14 - - 0.4
01/05:00pm 19.4 17.7 13.6 69 3.3 SW 15 24 8 13 - - 0.4
01/04:30pm 19.8 17.7 13.7 68 3.5 SW 17 28 9 15 - - 0.4
01/04:00pm 20.1 17.9 13.3 65 3.9 SW 17 28 9 15 - - 0.4
01/03:30pm 19.7 17.2 13.4 67 3.6 SW 19 28 10 15 - - 0.4
01/03:00pm 19.8 17.7 13.7 68 3.5 SW 17 26 9 14 - - 0.4
01/02:30pm 19.1 17.7 14.6 75 2.6 SW 15 22 8 12 - - 0.4
01/02:00pm 19.1 17.6 13.1 68 3.4 SW 13 20 7 11 - - 0.4
01/01:30pm 18.4 17.3 13.1 71 3.0 SSW 11 17 6 9 - - 0.4
01/01:00pm 18.4 17.2 12.8 70 3.1 SW 11 19 6 10 - - 0.4
01/12:30pm 17.8 16.2 12.7 72 2.9 SW 13 24 7 13 - - 0.4
01/12:00pm 18.3 17.9 13.0 71 3.0 SSW 7 13 4 7 - - 0.4
01/11:30am 18.5 18.1 13.1 71 3.1 SW 7 19 4 10 - - 0.4
01/11:00am 17.7 16.5 12.8 73 2.7 SW 11 20 6 11 - - 0.4
01/10:30am 16.9 16.9 13.6 81 1.9 WNW 6 9 3 5 - - 0.4
01/10:00am 15.6 15.7 13.8 89 1.0 SW 6 11 3 6 - - 0.4
01/09:30am 16.5 16.9 13.6 83 1.6 SW 4 11 2 6 - - 0.0
01/09:00am 15.6 14.4 12.9 84 1.5 SW 11 17 6 9 - - 1.0
01/08:30am 15.3 15.6 13.5 89 1.0 S 4 9 2 5 - - 1.0
01/08:00am 14.6 15.2 13.0 90 0.9 SSE 2 4 1 2 - - 1.0
01/07:30am 14.2 14.7 12.9 92 0.7 S 2 6 1 3 - - 1.0
01/07:00am 13.8 14.6 12.5 92 0.7 CALM 0 2 0 1 - - 1.0
01/06:30am 13.6 13.9 12.2 91 0.8 SSE 2 6 1 3 - - 1.0
01/06:00am 13.9 13.7 11.8 87 1.1 SSE 4 9 2 5 - - 1.0
01/05:30am 14.0 14.4 11.3 84 1.4 CALM 0 2 0 1 - - 0.8
01/05:00am 14.3 13.7 11.6 84 1.5 SSW 6 11 3 6 - - 0.8
01/04:30am 14.3 13.7 11.6 84 1.5 SSW 6 9 3 5 - - 0.8
01/04:00am 14.1 14.4 12.1 88 1.1 SSE 2 4 1 2 - - 0.8
01/03:30am 14.1 14.3 12.0 87 1.1 S 2 6 1 3 - - 0.8
01/03:00am 14.3 14.8 11.6 84 1.5 CALM 0 0 0 0 - - 0.8
01/02:30am 14.2 13.9 11.4 83 1.5 S 4 7 2 4 - - 0.8
01/02:00am 14.2 13.5 11.5 84 1.4 SSW 6 13 3 7 - - 0.8
01/01:30am 14.2 13.4 11.7 85 1.3 S 7 15 4 8 - - 0.8
01/01:00am 14.5 13.4 11.8 84 1.5 S 9 20 5 11 - - 0.8
01/12:30am 14.8 13.7 11.8 82 1.6 S 9 17 5 9 - - 0.8
01/12:00am 14.9 14.2 11.9 82 1.6 S 7 11 4 6 - - 0.8
 
Date/Time
EDT
Temp
°C
App
Temp
°C
Dew
Point
Rel
Hum
%
Delta-T
°C
Wind Press
QNH
hPa
Press
MSL
hPa
Rain
since 9 am
mm
Dir
 
Spd
km/h
Gust
km/h
Spd
kts
Gust
kts
31/11:30pm 14.8 15.2 12.5 86 1.3 SW 2 4 1 2 - - 0.8
31/11:00pm 14.7 15.6 12.9 89 1.0 CALM 0 2 0 1 - - 0.8
31/10:30pm 14.8 14.5 12.7 87 1.2 SSW 6 9 3 5 - - 0.8
31/10:00pm 14.8 14.6 13.0 89 1.0 S 6 9 3 5 - - 0.8
31/09:30pm 15.1 14.8 13.3 89 1.0 S 7 13 4 7 - - 0.6
31/09:00pm 15.6 15.2 12.5 82 1.7 SW 6 11 3 6 - - 0.0
31/08:30pm 15.9 14.0 11.9 77 2.2 SW 13 22 7 12 - - 0.0
31/08:00pm 16.4 15.4 12.2 76 2.3 SW 9 17 5 9 - - 0.0
31/07:30pm 16.7 14.4 11.8 73 2.7 SSW 15 20 8 11 - - 0.0
31/07:00pm 17.0 14.7 11.7 71 2.9 SW 15 28 8 15 - - 0.0
31/06:30pm 17.5 14.7 11.3 67 3.4 SW 17 26 9 14 - - 0.0
31/06:00pm 18.0 15.6 11.3 65 3.7 SW 15 24 8 13 - - 0.0
31/05:30pm 18.0 15.4 10.6 62 4.0 SW 15 24 8 13 - - 0.0
31/05:00pm 18.4 15.6 10.0 58 4.5 SW 15 24 8 13 - - 0.0
31/04:30pm 18.6 15.8 9.9 57 4.6 SW 15 26 8 14 - - 0.0
31/04:00pm 18.0 14.9 10.4 61 4.1 SW 17 26 9 14 - - 0.0
31/03:30pm 18.1 15.6 11.0 63 3.9 SW 15 26 8 14 - - 0.0
31/03:00pm 18.3 15.7 10.7 61 4.1 SW 15 28 8 15 - - 0.0
31/02:30pm 18.4 15.7 10.3 59 4.3 WSW 15 28 8 15 - - 0.0
31/02:00pm 18.3 15.6 10.4 60 4.2 SW 15 24 8 13 - - 0.0
31/01:30pm 18.5 16.0 11.1 62 4.0 SW 15 28 8 15 - - 0.0
31/01:00pm 18.5 16.2 11.8 65 3.7 SW 15 26 8 14 - - 0.0
31/12:30pm 18.6 16.0 12.1 66 3.6 SW 17 30 9 16 - - 0.0
31/12:00pm 20.3 17.6 12.8 62 4.3 SW 19 32 10 17 - - 0.0
31/11:30am 20.4 18.1 13.1 63 4.2 SW 17 28 9 15 - - 0.0
31/11:00am 20.0 18.3 12.5 62 4.2 SW 13 20 7 11 - - 0.0
31/10:30am 17.3 17.7 12.6 74 2.6 WNW 2 7 1 4 - - 0.0
31/10:00am 17.1 17.3 13.0 77 2.3 N 4 7 2 4 - - 0.0
31/09:30am 16.5 16.9 13.6 83 1.6 NNE 4 6 2 3 - - 0.0
31/09:00am 14.4 14.1 11.6 83 1.5 NNE 4 9 2 5 - - 0.0
31/08:30am 15.0 14.1 11.2 78 2.0 NNE 7 11 4 6 - - 0.0
31/08:00am 14.1 13.3 11.1 82 1.6 NE 6 9 3 5 - - 0.0
31/07:30am 12.0 11.9 10.7 92 0.7 NNE 2 6 1 3 - - 0.0
31/07:00am 10.7 10.6 9.6 93 0.6 CALM 0 2 0 1 - - 0.0
31/06:30am 9.8 9.5 8.7 93 0.5 CALM 0 0 0 0 - - 0.0
31/06:00am 9.5 9.2 8.6 94 0.4 CALM 0 0 0 0 - - 0.0
31/05:30am 9.1 8.6 8.0 93 0.5 CALM 0 0 0 0 - - 0.0
31/05:00am 8.6 8.0 7.5 93 0.5 CALM 0 0 0 0 - - 0.0
31/04:30am 9.0 8.5 7.9 93 0.5 CALM 0 0 0 0 - - 0.0
31/04:00am 9.1 8.6 7.9 92 0.6 CALM 0 0 0 0 - - 0.0
31/03:30am 9.5 9.1 8.3 92 0.6 CALM 0 0 0 0 - - 0.0
31/03:00am 9.2 8.7 7.8 91 0.7 CALM 0 0 0 0 - - 0.0
31/02:30am 9.7 9.3 8.1 90 0.8 CALM 0 0 0 0 - - 0.0
31/02:00am 9.9 9.5 8.3 90 0.8 CALM 0 0 0 0 - - 0.0
31/01:30am 10.1 9.7 8.2 88 0.9 CALM 0 0 0 0 - - 0.0
31/01:00am 9.8 9.2 7.6 86 1.1 CALM 0 0 0 0 - - 0.0
31/12:30am 10.1 9.5 7.5 84 1.2 CALM 0 0 0 0 - - 0.0
31/12:00am 10.7 10.2 7.9 83 1.4 CALM 0 0 0 0 - - 0.0
 
Date/Time
EDT
Temp
°C
App
Temp
°C
Dew
Point
Rel
Hum
%
Delta-T
°C
Wind Press
QNH
hPa
Press
MSL
hPa
Rain
since 9 am
mm
Dir
 
Spd
km/h
Gust
km/h
Spd
kts
Gust
kts
30/11:30pm 11.3 10.8 8.0 80 1.6 CALM 0 0 0 0 - - 0.0
30/11:00pm 11.7 11.1 7.4 75 2.1 CALM 0 0 0 0 - - 0.0
30/10:30pm 12.8 11.8 7.5 70 2.6 SSE 2 4 1 2 - - 0.0
30/10:00pm 14.0 13.0 7.5 65 3.2 SSE 2 4 1 2 - - 0.0
30/09:30pm 14.7 13.3 7.3 61 3.7 S 4 7 2 4 - - 0.0
30/09:00pm 15.5 13.2 7.5 59 4.0 SSE 9 20 5 11 - - 0.0
30/08:30pm 16.1 13.5 7.6 57 4.3 SSE 11 19 6 10 - - 0.0
30/08:00pm 17.3 15.0 7.6 53 4.9 SSE 9 20 5 11 - - 0.0
30/07:30pm 17.4 14.4 7.5 52 5.0 SSE 13 24 7 13 - - 0.0
30/07:00pm 18.8 16.2 7.9 49 5.6 SE 11 20 6 11 - - 0.0
30/06:30pm 17.8 15.1 7.2 50 5.3 SSE 11 24 6 13 - - 0.0
30/06:00pm 18.3 15.8 8.0 51 5.3 SSE 11 26 6 14 - - 0.0
30/05:30pm 18.0 15.5 8.0 52 5.1 S 11 22 6 12 - - 0.0
30/05:00pm 18.2 15.7 8.2 52 5.1 SSE 11 22 6 12 - - 0.0
30/04:30pm 19.0 15.8 8.4 50 5.5 SSE 15 24 8 13 - - 0.0
30/04:00pm 20.5 16.9 6.8 41 7.0 S 15 24 8 13 - - 0.0
30/03:30pm 20.3 17.2 7.3 43 6.7 SSE 13 22 7 12 - - 0.0
30/03:00pm 19.4 15.8 6.8 44 6.4 S 15 28 8 15 - - 0.0
30/02:30pm 20.4 16.9 7.1 42 6.8 S 15 30 8 16 - - 0.0
30/02:00pm 20.6 16.7 5.4 37 7.5 S 15 26 8 14 - - 0.0
30/01:30pm 20.9 16.8 6.4 39 7.3 SSE 17 30 9 16 - - 0.0
30/01:00pm 19.1 15.0 6.2 43 6.4 S 17 28 9 15 - - 0.0
30/12:30pm 20.2 16.2 6.5 41 6.9 SSE 17 26 9 14 - - 0.0
30/12:00pm 19.7 16.3 6.1 41 6.8 SSE 13 26 7 14 - - 0.0
30/11:30am 18.6 15.1 7.4 48 5.7 S 15 33 8 18 - - 0.0
30/11:00am 17.4 14.4 7.7 53 4.9 S 13 19 7 10 - - 0.0
30/10:30am 17.9 14.9 7.6 51 5.2 SSE 13 20 7 11 - - 0.0
30/10:00am 18.1 15.6 8.4 53 5.0 SSE 11 19 6 10 - - 0.0
30/09:30am 17.0 15.4 8.7 58 4.3 SE 7 15 4 8 - - 0.0
30/09:00am 15.3 13.4 9.0 66 3.2 SE 9 17 5 9 - - -
30/08:30am 14.8 13.6 9.6 71 2.7 SE 6 13 3 7 - - -
30/08:00am 13.5 12.4 10.1 80 1.8 SSE 6 9 3 5 - - -
30/07:30am 12.5 11.4 10.0 85 1.3 S 6 9 3 5 - - -
30/07:00am 12.3 11.6 9.9 85 1.2 SSW 4 7 2 4 - - -
30/06:30am 12.5 11.4 9.9 84 1.3 SSW 6 9 3 5 - - -
30/06:00am 12.5 11.7 9.7 83 1.4 S 4 7 2 4 - - -
30/05:30am 12.5 11.7 9.7 83 1.4 SSE 4 9 2 5 - - -
30/05:00am 12.4 11.6 9.6 83 1.4 SSW 4 7 2 4 - - -
30/04:30am 12.0 11.9 9.6 85 1.2 CALM 0 0 0 0 - - -
30/04:00am 11.8 11.3 9.2 84 1.3 SE 2 6 1 3 - - -
30/03:30am 11.7 10.8 9.4 86 1.2 SSW 4 7 2 4 - - -
30/03:00am 11.2 11.0 9.1 87 1.1 CALM 0 0 0 0 - - 0.0
30/02:30am 10.7 10.4 8.5 86 1.1 CALM 0 0 0 0 - - -
30/02:00am 11.3 9.9 8.7 84 1.3 S 6 7 3 4 - - -
30/01:30am 11.5 10.4 8.5 82 1.5 SSW 4 7 2 4 - - -
30/01:00am 11.9 11.3 8.9 82 1.5 SE 2 6 1 3 - - -
30/12:30am 12.7 12.1 9.0 78 1.9 S 2 7 1 4 - - -
30/12:00am 13.2 12.3 9.1 76 2.1 SSE 4 7 2 4 - - -
 
Date/Time
EDT
Temp
°C
App
Temp
°C
Dew
Point
Rel
Hum
%
Delta-T
°C
Wind Press
QNH
hPa
Press
MSL
hPa
Rain
since 9 am
mm
Dir
 
Spd
km/h
Gust
km/h
Spd
kts
Gust
kts
29/11:30pm 13.7 12.4 9.2 74 2.3 S 6 9 3 5 - - -
29/11:00pm 14.1 12.8 9.1 72 2.6 S 6 9 3 5 - - -

Other Formats:

Comma delimited format used in spreadsheet applications
http://www.bom.gov.au/fwo/IDV60801/IDV60801.95867.axf

JavaScript Object Notation format (JSON) in row-major order
http://www.bom.gov.au/fwo/IDV60801/IDV60801.95867.json